Barbarossa — ZDFA4 — position and weather

sailwx.info

Track history (hours):
 
Tides and Currents Weather Stations Pressure Air Temp Water Temp Dewpoint Dewpoint Depression Visibility Wind Speed Wind Dir Waves Ship Positions

Barbarossa

Last reported at 2015-Jul-02 16:29 UTC. Time now 2015-Jul-07 21:53 UTC.
Position N 55°39' E 021°10'.

Length 83 m; draft 3.6 m.

Type: Cargo ship. MMSI: 236029000.

Date/timePositionNaut miles runAvg speedWind from/ knotsBaromVisibWave heightAir tempDewpointWater temp
2015-Jul-02 16:29N 55°39' E 021°10'0 0.0
2015-Jul-02 15:32N 55°39' E 021°10'0 0.0
2015-Jul-02 14:33N 55°39' E 021°10'0 0.0
2015-Jul-02 13:24N 55°39' E 021°10'0 0.0
2015-Jul-02 12:33N 55°39' E 021°10'0 0.0
2015-Jul-02 11:23N 55°39' E 021°10'0 0.0
2015-Jul-02 10:33N 55°39' E 021°10'0 0.0
2015-Jul-02 07:23N 55°39' E 021°10'0 0.0
2015-Jul-02 06:32N 55°39' E 021°10'0 0.2
2015-Jul-02 04:33N 55°39' E 021°09'0 0.0
2015-Jul-02 02:13N 55°39' E 021°09'0 0.0
2015-Jul-02 01:22N 55°39' E 021°09'  
2015-Jun-28 20:23N 55°43' E 020°51'0 0.0
2015-Jun-28 19:33N 55°43' E 020°51'0 0.0
2015-Jun-28 18:17N 55°43' E 020°51'0 0.0
2015-Jun-28 17:33N 55°43' E 020°51'0 0.0
2015-Jun-28 16:33N 55°43' E 020°51'0 0.0
2015-Jun-28 15:33N 55°43' E 020°51'0 0.0
2015-Jun-28 14:33N 55°43' E 020°51'0 0.0
2015-Jun-28 13:33N 55°43' E 020°51'0 0.0
2015-Jun-28 12:33N 55°43' E 020°51'0 0.0
2015-Jun-28 11:31N 55°43' E 020°51'0 0.0
2015-Jun-28 10:32N 55°43' E 020°51'0 0.0
2015-Jun-28 09:28N 55°43' E 020°51'0 0.0
2015-Jun-28 08:33N 55°43' E 020°51'0 0.0
2015-Jun-28 07:33N 55°43' E 020°51'0 0.0
2015-Jun-28 03:24N 55°43' E 020°51'0 0.0
2015-Jun-27 21:23N 55°43' E 020°51'32 2.5
2015-Jun-27 08:33N 55°41' E 019°54'4 4.3
2015-Jun-27 07:33N 55°41' E 019°46'4 4.3
2015-Jun-27 06:33N 55°40' E 019°39'4 4.2
2015-Jun-27 05:33N 55°40' E 019°31'4 4.1
2015-Jun-27 04:33N 55°40' E 019°24'4 4.0
2015-Jun-27 03:30N 55°39' E 019°17'4 3.9
2015-Jun-27 02:33N 55°39' E 019°10'4 3.9
2015-Jun-27 01:33N 55°38' E 019°03'5 3.9
2015-Jun-27 00:23N 55°38' E 018°55'3 3.8
2015-Jun-26 23:31N 55°38' E 018°49'3 3.6
2015-Jun-26 22:33N 55°37' E 018°43'4 3.6
2015-Jun-26 21:33N 55°37' E 018°37'4 3.7
2015-Jun-26 20:33N 55°36' E 018°30'104 4.1
2015-Jun-25 19:27N 55°26' E 015°28'4 4.2
2015-Jun-25 18:33N 55°26' E 015°22'5 4.6
2015-Jun-25 17:29N 55°25' E 015°13'4 4.5
2015-Jun-25 16:33N 55°25' E 015°06'5 4.6
2015-Jun-25 15:33N 55°24' E 014°58'5 4.6
2015-Jun-25 14:33N 55°24' E 014°50'5 4.5
2015-Jun-25 13:33N 55°23' E 014°42'13 4.3
2015-Jun-25 10:29N 55°14' E 014°26'4 4.2
2015-Jun-25 09:31N 55°11' E 014°22'4 4.3
2015-Jun-25 08:32N 55°10' E 014°14'27 4.3
2015-Jun-25 02:12N 55°12' E 013°27'3 4.4
2015-Jun-25 01:33N 55°13' E 013°22'4 4.1
2015-Jun-25 00:33N 55°13' E 013°15'4 3.8
2015-Jun-24 23:33N 55°13' E 013°09'4 3.9
2015-Jun-24 22:33N 55°14' E 013°02'4 4.3
2015-Jun-24 21:33N 55°14' E 012°54'4 4.3
2015-Jun-24 20:33N 55°15' E 012°47'4 4.3
2015-Jun-24 19:33N 55°17' E 012°40'3 3.5
2015-Jun-24 18:33N 55°20' E 012°38'4 3.9
2015-Jun-24 17:33N 55°24' E 012°39'3 3.5
2015-Jun-24 16:33N 55°28' E 012°40'4 3.5
2015-Jun-24 15:33N 55°31' E 012°42'8 7.6
2015-Jun-24 14:33N 55°39' E 012°42'6 5.8
2015-Jun-24 13:33N 55°44' E 012°41'5 5.1
2015-Jun-24 12:33N 55°50' E 012°40'5 5.3
2015-Jun-24 11:33N 55°55' E 012°39'4 4.2
2015-Jun-24 10:33N 55°59' E 012°38'4 4.0
2015-Jun-24 09:34N 56°03' E 012°39'4 4.2
2015-Jun-24 08:33N 56°06' E 012°33'6 6.1
2015-Jun-24 07:33N 56°10' E 012°24'7 6.8
2015-Jun-24 06:33N 56°14' E 012°14'7 6.7
2015-Jun-24 05:30N 56°18' E 012°04'  
Track history (hours):
 
Tides and Currents Weather Stations Pressure Air Temp Water Temp Dewpoint Dewpoint Depression Visibility Wind Speed Wind Dir Waves Ship Positions

Barbarossa

Last reported at 2015-Jul-02 16:29 UTC. Time now 2015-Jul-07 21:53 UTC.
Position N 55°39' E 021°10'.

Length 83 m; draft 3.6 m.

Type: Cargo ship. MMSI: 236029000.

Date/timePositionNaut miles runAvg speedWind from/ knotsBaromVisibWave heightAir tempDewpointWater temp
2015-Jul-02 16:29N 55°39' E 021°10'0 0.0
2015-Jul-02 15:32N 55°39' E 021°10'0 0.0
2015-Jul-02 14:33N 55°39' E 021°10'0 0.0
2015-Jul-02 13:24N 55°39' E 021°10'0 0.0
2015-Jul-02 12:33N 55°39' E 021°10'0 0.0
2015-Jul-02 11:23N 55°39' E 021°10'0 0.0
2015-Jul-02 10:33N 55°39' E 021°10'0 0.0
2015-Jul-02 07:23N 55°39' E 021°10'0 0.0
2015-Jul-02 06:32N 55°39' E 021°10'0 0.2
2015-Jul-02 04:33N 55°39' E 021°09'0 0.0
2015-Jul-02 02:13N 55°39' E 021°09'0 0.0
2015-Jul-02 01:22N 55°39' E 021°09'  
2015-Jun-28 20:23N 55°43' E 020°51'0 0.0
2015-Jun-28 19:33N 55°43' E 020°51'0 0.0
2015-Jun-28 18:17N 55°43' E 020°51'0 0.0
2015-Jun-28 17:33N 55°43' E 020°51'0 0.0
2015-Jun-28 16:33N 55°43' E 020°51'0 0.0
2015-Jun-28 15:33N 55°43' E 020°51'0 0.0
2015-Jun-28 14:33N 55°43' E 020°51'0 0.0
2015-Jun-28 13:33N 55°43' E 020°51'0 0.0
2015-Jun-28 12:33N 55°43' E 020°51'0 0.0
2015-Jun-28 11:31N 55°43' E 020°51'0 0.0
2015-Jun-28 10:32N 55°43' E 020°51'0 0.0
2015-Jun-28 09:28N 55°43' E 020°51'0 0.0
2015-Jun-28 08:33N 55°43' E 020°51'0 0.0
2015-Jun-28 07:33N 55°43' E 020°51'0 0.0
2015-Jun-28 03:24N 55°43' E 020°51'0 0.0
2015-Jun-27 21:23N 55°43' E 020°51'32 2.5
2015-Jun-27 08:33N 55°41' E 019°54'4 4.3
2015-Jun-27 07:33N 55°41' E 019°46'4 4.3
2015-Jun-27 06:33N 55°40' E 019°39'4 4.2
2015-Jun-27 05:33N 55°40' E 019°31'4 4.1
2015-Jun-27 04:33N 55°40' E 019°24'4 4.0
2015-Jun-27 03:30N 55°39' E 019°17'4 3.9
2015-Jun-27 02:33N 55°39' E 019°10'4 3.9
2015-Jun-27 01:33N 55°38' E 019°03'5 3.9
2015-Jun-27 00:23N 55°38' E 018°55'3 3.8
2015-Jun-26 23:31N 55°38' E 018°49'3 3.6
2015-Jun-26 22:33N 55°37' E 018°43'4 3.6
2015-Jun-26 21:33N 55°37' E 018°37'4 3.7
2015-Jun-26 20:33N 55°36' E 018°30'104 4.1
2015-Jun-25 19:27N 55°26' E 015°28'4 4.2
2015-Jun-25 18:33N 55°26' E 015°22'5 4.6
2015-Jun-25 17:29N 55°25' E 015°13'4 4.5
2015-Jun-25 16:33N 55°25' E 015°06'5 4.6
2015-Jun-25 15:33N 55°24' E 014°58'5 4.6
2015-Jun-25 14:33N 55°24' E 014°50'5 4.5
2015-Jun-25 13:33N 55°23' E 014°42'13 4.3
2015-Jun-25 10:29N 55°14' E 014°26'4 4.2
2015-Jun-25 09:31N 55°11' E 014°22'4 4.3
2015-Jun-25 08:32N 55°10' E 014°14'27 4.3
2015-Jun-25 02:12N 55°12' E 013°27'3 4.4
2015-Jun-25 01:33N 55°13' E 013°22'4 4.1
2015-Jun-25 00:33N 55°13' E 013°15'4 3.8
2015-Jun-24 23:33N 55°13' E 013°09'4 3.9
2015-Jun-24 22:33N 55°14' E 013°02'4 4.3
2015-Jun-24 21:33N 55°14' E 012°54'4 4.3
2015-Jun-24 20:33N 55°15' E 012°47'4 4.3
2015-Jun-24 19:33N 55°17' E 012°40'3 3.5
2015-Jun-24 18:33N 55°20' E 012°38'4 3.9
2015-Jun-24 17:33N 55°24' E 012°39'3 3.5
2015-Jun-24 16:33N 55°28' E 012°40'4 3.5
2015-Jun-24 15:33N 55°31' E 012°42'8 7.6
2015-Jun-24 14:33N 55°39' E 012°42'6 5.8
2015-Jun-24 13:33N 55°44' E 012°41'5 5.1
2015-Jun-24 12:33N 55°50' E 012°40'5 5.3
2015-Jun-24 11:33N 55°55' E 012°39'4 4.2
2015-Jun-24 10:33N 55°59' E 012°38'4 4.0
2015-Jun-24 09:34N 56°03' E 012°39'4 4.2
2015-Jun-24 08:33N 56°06' E 012°33'6 6.1
2015-Jun-24 07:33N 56°10' E 012°24'7 6.8
2015-Jun-24 06:33N 56°14' E 012°14'7 6.7
2015-Jun-24 05:30N 56°18' E 012°04'  

Dump ship's entire track history